Time;durP1;ratioP1;P1;durP2;ratioP2;P2;SDS_P1;SDS_P2;PMS_P1;PMS_P2;Temp;Humidity;BMP_temperature;BMP_pressure;BME280_temperature;BME280_humidity;BME280_pressure;Samples;Min_cycle;Max_cycle;Signal;HPM_P1;HPM_P2
2023/10/10 00:00:48;;;;;;;0.30;0.30;;;15.10;99.90;;;;;;5051477;28;20068;-73
2023/10/10 00:03:14;;;;;;;0.40;0.40;;;15.10;99.90;;;;;;5043852;28;20047;-73
2023/10/10 00:05:40;;;;;;;0.20;0.20;;;15.10;99.90;;;;;;5063338;28;20504;-73
2023/10/10 00:08:09;;;;;;;0.50;0.50;;;15.10;99.90;;;;;;5063939;28;20047;-73
2023/10/10 00:10:36;;;;;;;0.60;0.60;;;15.10;99.90;;;;;;5062813;28;20062;-73
2023/10/10 00:13:04;;;;;;;0.50;0.50;;;15.10;99.90;;;;;;5068527;28;20054;-73
2023/10/10 00:15:34;;;;;;;0.63;0.63;;;15.10;99.90;;;;;;5072062;28;20047;-73
2023/10/10 00:18:07;;;;;;;0.30;0.30;;;15.10;99.90;;;;;;5065510;28;20035;-73
2023/10/10 00:20:44;;;;;;;0.70;0.70;;;15.10;99.90;;;;;;5051842;28;20082;-73
2023/10/10 00:23:11;;;;;;;0.40;0.40;;;15.10;99.90;;;;;;5052343;28;20044;-73
2023/10/10 00:25:42;;;;;;;0.40;0.40;;;15.10;99.90;;;;;;5059766;28;20036;-73
2023/10/10 00:28:19;;;;;;;0.40;0.40;;;15.10;99.90;;;;;;5049399;28;20050;-73
2023/10/10 00:30:49;;;;;;;0.30;0.30;;;15.10;99.90;;;;;;5064936;28;20588;-73
2023/10/10 00:33:18;;;;;;;0.40;0.40;;;15.10;99.90;;;;;;5070942;28;20486;-73
2023/10/10 00:35:44;;;;;;;0.30;0.30;;;15.10;99.90;;;;;;5058122;28;20036;-73
2023/10/10 00:38:13;;;;;;;0.32;0.32;;;15.10;99.90;;;;;;5066705;28;20044;-73
2023/10/10 00:40:40;;;;;;;0.40;0.40;;;15.10;99.90;;;;;;5063186;28;20040;-73
2023/10/10 00:43:13;;;;;;;0.60;0.60;;;15.10;99.90;;;;;;5040357;28;20494;-73
2023/10/10 00:45:41;;;;;;;0.30;0.30;;;15.10;99.90;;;;;;5067390;28;20036;-73
2023/10/10 00:48:09;;;;;;;0.40;0.40;;;15.10;99.90;;;;;;5070844;28;20107;-73
2023/10/10 00:50:37;;;;;;;0.40;0.40;;;15.10;99.90;;;;;;5066158;28;20105;-73
2023/10/10 00:53:08;;;;;;;0.35;0.35;;;15.10;99.90;;;;;;5042076;28;20032;-73
2023/10/10 00:55:34;;;;;;;0.50;0.50;;;15.10;99.90;;;;;;5058608;28;20040;-73
2023/10/10 00:58:01;;;;;;;0.40;0.40;;;15.10;99.90;;;;;;5067419;28;20047;-73
2023/10/10 01:00:29;;;;;;;0.40;0.40;;;15.10;99.90;;;;;;5069583;28;20412;-73
2023/10/10 01:03:42;;;;;;;0.40;0.40;;;15.20;99.90;;;;;;5072202;28;20086;-73
2023/10/10 01:05:55;;;;;;;0.40;0.40;;;15.10;99.90;;;;;;5054577;28;20040;-73
2023/10/10 01:08:26;;;;;;;0.43;0.43;;;15.10;99.90;;;;;;5054496;28;20061;-73
2023/10/10 01:10:56;;;;;;;0.50;0.50;;;15.20;99.90;;;;;;5047209;28;20036;-73
2023/10/10 01:13:22;;;;;;;0.40;0.40;;;15.10;99.90;;;;;;5058876;28;20048;-73
2023/10/10 01:15:48;;;;;;;0.85;0.70;;;15.10;99.90;;;;;;5040174;28;20163;-73
2023/10/10 01:18:14;;;;;;;0.35;0.35;;;15.20;99.90;;;;;;5062535;28;20498;-73
2023/10/10 01:20:50;;;;;;;0.40;0.40;;;15.20;99.90;;;;;;5042989;28;20545;-73
2023/10/10 01:23:18;;;;;;;0.50;0.50;;;15.20;99.90;;;;;;5051898;28;20127;-73
2023/10/10 01:25:46;;;;;;;0.30;0.30;;;15.20;99.90;;;;;;5049695;28;20032;-73
2023/10/10 01:28:23;;;;;;;0.60;0.60;;;15.20;99.90;;;;;;5038578;28;20036;-73
2023/10/10 01:33:41;;;;;;;0.40;0.40;;;15.20;99.90;;;;;;5068497;28;20086;-73
2023/10/10 01:36:20;;;;;;;0.43;0.43;;;15.20;99.90;;;;;;5058082;28;20043;-73
2023/10/10 01:39:07;;;;;;;0.60;0.60;;;15.20;99.90;;;;;;5074584;28;20050;-73
2023/10/10 01:41:38;;;;;;;0.50;0.50;;;15.20;99.90;;;;;;5057212;28;20040;-73
2023/10/10 01:44:22;;;;;;;0.40;0.40;;;15.20;99.90;;;;;;5066077;28;20028;-73
2023/10/10 01:46:50;;;;;;;0.38;0.38;;;15.20;99.90;;;;;;5069166;28;20545;-73
2023/10/10 01:49:20;;;;;;;0.40;0.40;;;15.20;99.90;;;;;;5060062;28;20048;-73
2023/10/10 01:51:55;;;;;;;0.38;0.38;;;15.20;99.90;;;;;;5058413;28;20051;-73
2023/10/10 01:54:21;;;;;;;0.40;0.40;;;15.10;99.90;;;;;;5050512;28;20044;-74
2023/10/10 01:56:46;;;;;;;0.40;0.40;;;15.20;99.90;;;;;;5069974;28;20040;-73
2023/10/10 01:59:23;;;;;;;0.30;0.30;;;15.20;99.90;;;;;;5069875;28;20405;-73
2023/10/10 02:01:49;;;;;;;0.40;0.40;;;15.20;99.90;;;;;;5062578;28;20078;-73
2023/10/10 02:04:21;;;;;;;0.30;0.30;;;15.20;99.90;;;;;;5059353;28;20138;-73
2023/10/10 02:06:47;;;;;;;0.30;0.30;;;15.20;99.90;;;;;;5062808;28;20048;-71
2023/10/10 02:09:27;;;;;;;0.43;0.43;;;15.20;99.90;;;;;;5038781;28;20067;-73
2023/10/10 02:12:04;;;;;;;0.77;0.77;;;15.10;99.90;;;;;;5034332;28;20093;-73
2023/10/10 02:14:30;;;;;;;0.30;0.30;;;15.10;99.90;;;;;;5055482;28;20042;-73
2023/10/10 02:16:59;;;;;;;0.40;0.40;;;15.10;99.90;;;;;;5069884;28;20489;-73
2023/10/10 02:19:43;;;;;;;0.40;0.40;;;15.10;99.90;;;;;;5061078;28;20047;-73
2023/10/10 02:22:19;;;;;;;0.60;0.60;;;15.10;99.90;;;;;;5054560;28;20036;-71
2023/10/10 02:24:49;;;;;;;0.45;0.45;;;15.10;99.90;;;;;;5043840;28;20027;-73
2023/10/10 02:27:19;;;;;;;0.40;0.40;;;15.20;99.90;;;;;;5056957;28;20052;-73
2023/10/10 02:29:49;;;;;;;0.40;0.40;;;15.20;99.90;;;;;;5045511;28;20040;-73
2023/10/10 02:32:21;;;;;;;0.50;0.50;;;15.20;99.90;;;;;;5048796;28;20068;-73
2023/10/10 02:34:56;;;;;;;0.40;0.40;;;15.20;99.90;;;;;;5040045;28;20048;-73
2023/10/10 02:40:13;;;;;;;0.50;0.50;;;15.20;99.90;;;;;;5061305;28;20032;-73
2023/10/10 02:42:39;;;;;;;0.40;0.40;;;15.20;99.90;;;;;;5062441;28;20170;-73
2023/10/10 02:45:06;;;;;;;0.30;0.30;;;15.10;99.90;;;;;;5045393;28;20032;-73
2023/10/10 02:47:32;;;;;;;0.50;0.50;;;15.20;99.90;;;;;;5064027;28;20040;-73
2023/10/10 02:50:39;;;;;;;0.60;0.60;;;15.10;99.90;;;;;;5067955;28;20055;-73
2023/10/10 02:53:00;;;;;;;0.28;0.28;;;15.10;99.90;;;;;;5060775;28;20044;-73
2023/10/10 02:55:33;;;;;;;0.40;0.40;;;15.10;99.90;;;;;;5053338;28;20039;-73
2023/10/10 02:57:59;;;;;;;0.45;0.45;;;15.10;99.90;;;;;;5063351;28;20438;-73
2023/10/10 03:02:54;;;;;;;0.60;0.60;;;15.10;99.90;;;;;;5062510;28;20055;-73
2023/10/10 03:06:09;;;;;;;0.75;0.75;;;15.20;99.90;;;;;;5046051;28;20044;-73
2023/10/10 03:08:34;;;;;;;0.63;0.63;;;15.10;99.90;;;;;;5057533;28;20331;-73
2023/10/10 03:11:01;;;;;;;0.40;0.40;;;15.20;99.90;;;;;;5069859;28;20435;-73
2023/10/10 03:13:45;;;;;;;0.68;0.60;;;15.10;99.90;;;;;;5053227;28;20127;-73
2023/10/10 03:19:13;;;;;;;0.32;0.32;;;15.10;99.90;;;;;;5071595;28;20048;-73
2023/10/10 03:29:47;;;;;;;0.50;0.50;;;15.10;99.90;;;;;;5064737;28;20076;-73
2023/10/10 03:34:56;;;;;;;0.30;0.30;;;15.10;99.90;;;;;;5059536;28;20131;-73
2023/10/10 03:39:58;;;;;;;0.40;0.40;;;15.10;99.90;;;;;;5064808;28;20445;-73
2023/10/10 05:24:09;;;;;;;0.47;0.47;;;14.80;99.90;;;;;;5060253;28;20070;-73
2023/10/10 05:26:46;;;;;;;2.72;1.58;;;14.80;99.90;;;;;;5056261;28;20497;-73
2023/10/10 05:29:19;;;;;;;1.08;0.88;;;14.80;99.90;;;;;;5064497;28;20468;-73
2023/10/10 05:31:45;;;;;;;0.40;0.40;;;14.80;99.90;;;;;;5059192;28;20047;-73
2023/10/10 05:34:14;;;;;;;0.38;0.38;;;14.80;99.90;;;;;;5052956;28;20042;-73
2023/10/10 05:36:41;;;;;;;0.55;0.55;;;14.80;99.90;;;;;;5058177;28;20493;-73
2023/10/10 05:39:11;;;;;;;0.82;0.82;;;14.70;99.90;;;;;;5069619;28;20180;-73
2023/10/10 05:41:40;;;;;;;0.85;0.85;;;14.70;99.90;;;;;;5044021;28;20036;-73
2023/10/10 05:44:07;;;;;;;0.70;0.70;;;14.70;99.90;;;;;;5052057;28;20089;-73
2023/10/10 05:46:34;;;;;;;0.45;0.45;;;14.70;99.90;;;;;;5053334;28;20396;-73
2023/10/10 05:49:00;;;;;;;1.17;1.17;;;14.70;99.90;;;;;;5067681;28;20097;-74
2023/10/10 05:51:26;;;;;;;0.40;0.40;;;14.70;99.90;;;;;;5056727;28;20033;-73
2023/10/10 05:53:52;;;;;;;0.73;0.60;;;14.70;99.90;;;;;;5038736;28;20044;-73
2023/10/10 05:56:18;;;;;;;0.38;0.38;;;14.70;99.90;;;;;;5066508;28;20122;-74
2023/10/10 05:58:45;;;;;;;0.50;0.50;;;14.70;99.90;;;;;;5063985;28;20360;-74
2023/10/10 06:01:14;;;;;;;0.88;0.85;;;14.70;99.90;;;;;;5057538;28;20398;-73
2023/10/10 06:03:41;;;;;;;0.57;0.52;;;14.70;99.90;;;;;;5048420;28;20071;-73
2023/10/10 06:06:11;;;;;;;0.50;0.50;;;14.70;99.90;;;;;;5068575;28;20113;-73
2023/10/10 06:08:44;;;;;;;0.47;0.47;;;14.60;99.90;;;;;;5052827;28;20122;-73
2023/10/10 06:11:13;;;;;;;0.57;0.57;;;14.60;99.90;;;;;;5068790;28;20036;-75
2023/10/10 06:13:40;;;;;;;0.50;0.50;;;14.50;99.90;;;;;;5065437;28;20122;-73
2023/10/10 06:16:07;;;;;;;0.55;0.55;;;14.60;99.90;;;;;;5042071;28;20481;-73
2023/10/10 06:18:33;;;;;;;0.47;0.47;;;14.60;99.90;;;;;;5063801;28;20040;-73
2023/10/10 06:21:02;;;;;;;0.55;0.55;;;14.50;99.90;;;;;;5073468;28;20044;-73
2023/10/10 06:23:32;;;;;;;0.60;0.60;;;14.50;99.90;;;;;;5072073;28;20387;-73
2023/10/10 06:25:58;;;;;;;0.50;0.50;;;14.50;99.90;;;;;;5044435;28;20037;-73
2023/10/10 06:28:26;;;;;;;0.40;0.40;;;14.50;99.90;;;;;;5061349;28;20044;-73
2023/10/10 06:30:55;;;;;;;0.50;0.50;;;14.50;99.90;;;;;;5048228;28;20038;-73
2023/10/10 06:33:27;;;;;;;0.50;0.50;;;14.50;99.90;;;;;;5064075;28;20048;-73
2023/10/10 06:38:59;;;;;;;0.35;0.35;;;14.50;99.90;;;;;;5057196;28;20108;-73
2023/10/10 06:41:27;;;;;;;1.65;1.35;;;14.40;99.90;;;;;;5066297;28;20533;-73
2023/10/10 06:43:53;;;;;;;1.58;1.17;;;14.50;99.90;;;;;;5062071;28;20041;-73
2023/10/10 06:46:19;;;;;;;0.30;0.30;;;14.50;99.90;;;;;;5073296;28;20052;-74
2023/10/10 06:48:47;;;;;;;1.08;0.98;;;14.50;99.90;;;;;;5074319;28;20100;-74
2023/10/10 06:51:21;;;;;;;1.52;1.08;;;14.60;99.90;;;;;;5052525;28;20032;-74
2023/10/10 06:53:48;;;;;;;2.15;0.88;;;14.60;99.90;;;;;;5056458;28;20549;-74
2023/10/10 06:56:17;;;;;;;0.60;0.60;;;14.60;99.90;;;;;;5069332;28;20505;-74
2023/10/10 06:58:44;;;;;;;0.63;0.63;;;14.70;99.90;;;;;;5064511;28;20548;-74
2023/10/10 07:01:19;;;;;;;0.70;0.70;;;14.70;99.90;;;;;;5050686;28;20051;-74
2023/10/10 07:03:54;;;;;;;0.60;0.60;;;14.70;99.90;;;;;;5044892;28;20055;-74
2023/10/10 07:06:23;;;;;;;0.40;0.40;;;14.80;99.90;;;;;;5065776;28;20131;-74
2023/10/10 07:11:33;;;;;;;0.52;0.52;;;14.90;99.90;;;;;;5065068;28;20054;-74
2023/10/10 07:13:59;;;;;;;0.60;0.60;;;14.90;99.90;;;;;;5065310;28;20120;-74
2023/10/10 07:16:25;;;;;;;1.00;0.88;;;15.00;99.90;;;;;;5063781;28;20072;-74
2023/10/10 07:19:18;;;;;;;0.40;0.40;;;15.00;99.90;;;;;;5070377;28;20082;-74
2023/10/10 07:21:36;;;;;;;0.95;0.95;;;15.10;99.90;;;;;;5063240;28;20036;-74
2023/10/10 07:24:05;;;;;;;1.42;1.33;;;15.10;99.90;;;;;;5051713;28;20085;-74
2023/10/10 07:26:40;;;;;;;0.90;0.90;;;15.20;99.90;;;;;;5063900;28;20122;-75
2023/10/10 07:31:53;;;;;;;1.23;1.23;;;15.30;99.90;;;;;;5067838;28;20043;-77
2023/10/10 07:34:19;;;;;;;;;;;15.30;99.90;;;;;;5071800;28;20036;-72
2023/10/10 07:36:50;;;;;;;0.40;0.40;;;15.40;99.90;;;;;;5066330;28;19924;-72
2023/10/10 07:39:35;;;;;;;1.38;1.10;;;15.40;99.90;;;;;;5034749;28;20032;-76
2023/10/10 07:42:02;;;;;;;1.23;1.23;;;15.50;99.90;;;;;;5062862;28;20409;-76
2023/10/10 07:44:30;;;;;;;0.70;0.70;;;15.50;99.90;;;;;;5045368;28;20077;-68
2023/10/10 07:47:19;;;;;;;1.05;0.85;;;15.60;99.90;;;;;;5064953;28;20079;-75
2023/10/10 07:49:50;;;;;;;0.60;0.60;;;15.60;99.90;;;;;;5050239;28;20614;-73
2023/10/10 07:52:20;;;;;;;0.50;0.50;;;15.70;99.90;;;;;;5072539;28;20524;-73
2023/10/10 07:54:46;;;;;;;1.98;1.35;;;15.70;99.90;;;;;;5065766;28;20043;-73
2023/10/10 07:57:22;;;;;;;1.85;1.70;;;15.80;99.90;;;;;;5072078;28;20048;-73
2023/10/10 07:59:49;;;;;;;1.52;1.50;;;15.80;99.90;;;;;;5055594;28;20051;-73
2023/10/10 08:02:24;;;;;;;1.60;1.52;;;15.80;99.90;;;;;;5063830;28;20498;-73
2023/10/10 08:04:54;;;;;;;1.27;1.27;;;15.90;99.90;;;;;;5050671;28;20040;-73
2023/10/10 08:07:20;;;;;;;1.33;1.13;;;16.00;99.90;;;;;;5068670;28;20044;-73
2023/10/10 08:09:47;;;;;;;1.17;1.17;;;16.00;99.90;;;;;;5048689;28;20068;-73
2023/10/10 08:12:13;;;;;;;0.80;0.80;;;16.10;99.90;;;;;;5067897;28;20119;-73
2023/10/10 08:14:39;;;;;;;1.00;0.75;;;16.20;99.90;;;;;;5056907;28;20419;-73
2023/10/10 08:17:18;;;;;;;1.70;1.05;;;16.20;99.90;;;;;;5066121;28;20125;-73
2023/10/10 08:19:53;;;;;;;2.15;1.60;;;16.30;99.90;;;;;;5047011;28;20486;-72
2023/10/10 08:22:25;;;;;;;1.45;1.20;;;16.30;99.90;;;;;;5064283;28;20435;-74
2023/10/10 08:24:54;;;;;;;1.20;1.20;;;16.30;99.90;;;;;;5066357;28;20036;-74
2023/10/10 08:27:22;;;;;;;1.83;1.73;;;16.40;99.90;;;;;;5043189;28;20079;-74
2023/10/10 08:29:50;;;;;;;;;;;16.40;99.90;;;;;;5039257;28;20482;-74
2023/10/10 08:32:16;;;;;;;2.17;1.98;;;16.50;99.90;;;;;;5064243;28;19967;-74
2023/10/10 08:34:45;;;;;;;1.27;1.17;;;16.50;99.90;;;;;;5057970;28;20059;-75
2023/10/10 08:37:10;;;;;;;3.28;2.15;;;16.60;99.90;;;;;;5061379;28;20037;-74
2023/10/10 08:39:36;;;;;;;2.72;2.08;;;16.60;99.90;;;;;;5054043;28;20040;-74
2023/10/10 08:42:10;;;;;;;1.83;1.50;;;16.70;99.90;;;;;;5060047;28;20486;-74
2023/10/10 08:44:39;;;;;;;3.28;2.28;;;16.70;99.90;;;;;;5040932;28;20033;-73
2023/10/10 08:47:17;;;;;;;3.08;2.88;;;16.70;99.90;;;;;;5047998;28;20546;-75
2023/10/10 08:49:47;;;;;;;1.27;1.15;;;16.80;99.90;;;;;;5062656;28;20040;-74
2023/10/10 08:52:16;;;;;;;2.95;1.85;;;16.90;99.90;;;;;;5059240;28;20048;-75
2023/10/10 08:54:44;;;;;;;1.85;1.75;;;16.90;99.90;;;;;;5065615;28;20189;-75
2023/10/10 08:57:12;;;;;;;2.58;2.38;;;16.90;99.90;;;;;;5056509;28;20048;-75
2023/10/10 08:59:42;;;;;;;6.28;2.72;;;16.90;99.90;;;;;;5056272;28;20406;-75
2023/10/10 09:02:19;;;;;;;1.90;1.80;;;16.90;99.90;;;;;;5054234;28;20262;-74
2023/10/10 09:04:46;;;;;;;1.45;1.35;;;16.90;99.90;;;;;;5053939;28;20044;-74
2023/10/10 09:07:20;;;;;;;2.78;2.60;;;17.00;99.90;;;;;;5041070;28;20071;-74
2023/10/10 09:10:04;;;;;;;1.98;1.88;;;17.10;99.90;;;;;;5041672;28;20421;-73
2023/10/10 09:12:33;;;;;;;2.35;2.15;;;17.20;99.90;;;;;;5065819;28;20045;-74
2023/10/10 09:15:16;;;;;;;2.72;2.53;;;17.30;99.90;;;;;;5055898;28;20036;-74
2023/10/10 09:17:42;;;;;;;4.28;2.70;;;17.40;99.90;;;;;;5062877;28;20048;-74
2023/10/10 09:20:23;;;;;;;1.90;1.80;;;17.40;99.90;;;;;;5052497;28;20037;-73
2023/10/10 09:22:52;;;;;;;1.80;1.70;;;17.50;99.90;;;;;;5056870;28;20574;-71
2023/10/10 09:25:25;;;;;;;1.80;1.58;;;17.70;99.90;;;;;;5044862;28;20040;-76
2023/10/10 09:28:04;;;;;;;3.80;2.65;;;17.80;99.90;;;;;;5046588;28;20058;-76
2023/10/10 09:30:40;;;;;;;3.25;2.90;;;17.80;99.90;;;;;;5058136;28;20063;-76
2023/10/10 09:36:08;;;;;;;1.13;1.02;;;17.90;99.90;;;;;;5059345;28;20504;-76
2023/10/10 09:38:45;;;;;;;2.40;2.30;;;18.10;99.90;;;;;;5063300;28;20410;-75
2023/10/10 09:50:00;;;;;;;2.58;2.38;;;18.50;99.90;;;;;;5066718;28;20048;-76
2023/10/10 10:09:17;;;;;;;3.55;3.25;;;18.90;99.90;;;;;;5027700;28;20094;-76
2023/10/10 10:12:30;;;;;;;6.78;4.10;;;19.00;99.90;;;;;;5052273;28;20067;-76
2023/10/10 10:15:21;;;;;;;3.55;3.28;;;19.10;99.90;;;;;;5051268;28;20045;-76
2023/10/10 10:18:11;;;;;;;2.63;2.42;;;19.20;99.90;;;;;;5051361;28;20040;-76
2023/10/10 10:20:47;;;;;;;2.97;2.78;;;19.30;99.90;;;;;;5062866;28;20478;-75
2023/10/10 10:23:25;;;;;;;0.82;0.82;;;19.40;99.90;;;;;;5057883;28;20398;-76
2023/10/10 10:26:45;;;;;;;0.77;0.77;;;19.40;99.90;;;;;;5059111;28;20158;-73
2023/10/10 10:28:56;;;;;;;2.60;2.40;;;19.50;99.90;;;;;;5043841;28;20106;-75
2023/10/10 10:31:29;;;;;;;0.98;0.90;;;19.60;99.90;;;;;;5048471;28;20044;-75
2023/10/10 10:34:07;;;;;;;2.17;1.77;;;19.60;99.90;;;;;;5038827;28;20045;-75
2023/10/10 10:36:42;;;;;;;0.70;0.70;;;19.70;99.90;;;;;;5034462;28;20040;-77
2023/10/10 10:39:37;;;;;;;1.45;1.40;;;19.80;99.90;;;;;;5051816;28;20037;-77
2023/10/10 10:42:15;;;;;;;4.60;2.10;;;19.90;99.90;;;;;;5037008;28;20049;-77
2023/10/10 10:44:53;;;;;;;;;;;20.00;99.90;;;;;;5046196;28;20136;-76
2023/10/10 10:47:59;;;;;;;4.57;1.88;;;20.20;99.90;;;;;;5061492;28;19939;-76
2023/10/10 10:50:40;;;;;;;3.95;3.13;;;20.30;99.90;;;;;;5052828;28;20517;-76
2023/10/10 10:53:20;;;;;;;1.83;1.67;;;20.40;99.90;;;;;;5049979;28;20170;-77
2023/10/10 10:56:06;;;;;;;3.03;1.55;;;20.40;99.90;;;;;;5038070;28;20125;-76
2023/10/10 10:58:47;;;;;;;6.05;2.08;;;20.50;99.90;;;;;;5048891;28;20508;-76
2023/10/10 11:01:17;;;;;;;1.95;1.85;;;20.70;99.90;;;;;;5039852;28;20490;-76
2023/10/10 11:03:44;;;;;;;2.38;2.25;;;20.80;99.90;;;;;;5055426;28;20032;-76
2023/10/10 11:06:10;;;;;;;3.92;1.30;;;20.90;99.90;;;;;;5055441;28;20071;-76
2023/10/10 11:16:56;;;;;;;1.67;1.65;;;21.20;99.90;;;;;;5062782;28;20430;-75
2023/10/10 11:21:57;;;;;;;1.73;1.63;;;21.20;99.90;;;;;;5064905;28;20513;-76
2023/10/10 11:24:25;;;;;;;1.10;1.10;;;21.20;99.90;;;;;;5053189;28;20079;-76
2023/10/10 11:29:48;;;;;;;1.80;1.70;;;21.00;99.90;;;;;;5054106;28;20512;-76
2023/10/10 11:32:25;;;;;;;1.38;1.33;;;20.80;99.90;;;;;;5070824;28;20054;-75
2023/10/10 11:34:55;;;;;;;1.40;1.40;;;20.80;99.90;;;;;;5049444;28;20044;-75
2023/10/10 11:37:26;;;;;;;1.40;1.35;;;20.70;99.90;;;;;;5047823;28;20111;-75
2023/10/10 11:42:57;;;;;;;1.90;1.80;;;20.90;99.90;;;;;;5009485;28;20449;-75
2023/10/10 11:45:27;;;;;;;1.67;1.58;;;21.00;99.90;;;;;;4991132;28;20124;-75
2023/10/10 11:48:00;;;;;;;1.85;1.30;;;21.20;99.90;;;;;;5034895;28;20102;-75
2023/10/10 11:50:56;;;;;;;1.35;1.33;;;21.30;99.90;;;;;;5062725;28;20463;-75
2023/10/10 11:53:23;;;;;;;0.80;0.80;;;21.50;99.90;;;;;;5060097;28;20084;-76
2023/10/10 11:55:53;;;;;;;3.22;2.80;;;21.60;99.90;;;;;;5058679;28;20039;-75
2023/10/10 11:58:37;;;;;;;2.05;1.27;;;21.70;99.90;;;;;;5060754;28;20043;-74
2023/10/10 12:01:09;;;;;;;4.28;1.95;;;21.80;99.90;;;;;;5055509;28;20037;-74
2023/10/10 12:03:43;;;;;;;1.83;1.73;;;21.90;99.90;;;;;;5050598;28;20044;-74
2023/10/10 12:06:26;;;;;;;1.67;1.58;;;22.00;99.90;;;;;;5069586;28;20048;-74
2023/10/10 12:08:53;;;;;;;2.13;2.03;;;22.10;99.90;;;;;;5047148;28;20497;-74
2023/10/10 12:11:20;;;;;;;0.80;0.80;;;22.10;99.90;;;;;;5064178;28;20036;-73
2023/10/10 12:13:47;;;;;;;3.22;2.28;;;22.10;99.90;;;;;;5058272;28;20048;-74
2023/10/10 12:16:13;;;;;;;1.08;1.08;;;22.00;99.90;;;;;;5051535;28;20123;-74
2023/10/10 12:19:00;;;;;;;2.63;1.83;;;22.10;99.90;;;;;;5054936;28;20119;-74
2023/10/10 12:21:26;;;;;;;0.93;0.93;;;22.00;99.90;;;;;;5051689;28;20032;-74
2023/10/10 12:23:54;;;;;;;1.10;1.10;;;22.10;99.90;;;;;;5065755;28;20105;-74
2023/10/10 12:26:23;;;;;;;2.05;1.90;;;22.10;99.90;;;;;;5058712;28;20050;-74
2023/10/10 12:28:53;;;;;;;6.93;2.90;;;22.10;99.90;;;;;;5076282;28;20040;-74
2023/10/10 12:31:21;;;;;;;1.20;1.15;;;22.20;99.90;;;;;;5042975;28;20044;-75
2023/10/10 12:33:48;;;;;;;12.77;1.45;;;22.30;99.90;;;;;;5051109;28;20075;-75
2023/10/10 12:36:15;;;;;;;0.73;0.65;;;22.40;99.90;;;;;;5050128;28;20084;-75
2023/10/10 12:38:41;;;;;;;1.13;1.13;;;22.50;99.90;;;;;;5071511;28;20069;-75
2023/10/10 12:41:13;;;;;;;1.83;1.73;;;22.60;99.90;;;;;;5039904;28;20046;-75
2023/10/10 12:43:39;;;;;;;3.58;1.70;;;22.70;99.90;;;;;;5060847;28;20040;-75
2023/10/10 12:46:07;;;;;;;5.65;1.15;;;22.70;99.90;;;;;;5053952;28;20047;-75
2023/10/10 12:48:39;;;;;;;;;;;22.70;99.90;;;;;;5043203;28;20550;-75
2023/10/10 12:51:09;;;;;;;0.70;0.70;;;22.70;99.90;;;;;;5056244;28;19916;-75
2023/10/10 12:53:39;;;;;;;2.22;2.08;;;22.70;99.90;;;;;;5044157;28;20078;-75
2023/10/10 12:56:16;;;;;;;2.22;2.13;;;22.70;99.90;;;;;;5051493;28;20489;-75
2023/10/10 12:58:51;;;;;;;1.45;0.90;;;22.60;99.90;;;;;;5053564;28;20085;-75
2023/10/10 13:01:23;;;;;;;2.13;1.67;;;22.40;99.90;;;;;;5055489;28;20113;-75
2023/10/10 13:03:50;;;;;;;1.23;1.13;;;22.30;99.90;;;;;;5060987;28;20284;-75
2023/10/10 13:06:16;;;;;;;1.23;1.20;;;22.20;99.90;;;;;;5046526;28;20021;-75
2023/10/10 13:08:54;;;;;;;1.42;1.33;;;22.10;99.90;;;;;;5059604;28;20511;-75
2023/10/10 13:11:32;;;;;;;1.10;1.00;;;22.00;99.90;;;;;;5060327;28;20447;-75
2023/10/10 13:14:08;;;;;;;;;;;21.90;99.90;;;;;;5041985;28;20076;-75
2023/10/10 13:19:11;;;;;;;1.00;1.00;;;21.80;99.90;;;;;;5060234;28;20376;-75
2023/10/10 13:21:38;;;;;;;1.10;1.08;;;21.70;99.90;;;;;;5067162;28;20044;-75
2023/10/10 13:24:10;;;;;;;0.98;0.98;;;21.60;99.90;;;;;;5057620;28;20032;-75
2023/10/10 13:26:39;;;;;;;1.40;1.33;;;21.60;99.90;;;;;;5053004;28;20357;-75
2023/10/10 13:29:06;;;;;;;1.73;1.60;;;21.50;99.90;;;;;;5045962;28;20453;-75
2023/10/10 13:31:32;;;;;;;1.40;0.82;;;21.50;99.90;;;;;;5050683;28;20047;-75
2023/10/10 13:33:58;;;;;;;0.80;0.80;;;21.50;99.90;;;;;;5059908;28;20044;-74
2023/10/10 13:36:24;;;;;;;1.83;1.73;;;21.40;99.90;;;;;;5037177;28;20073;-74
2023/10/10 13:38:51;;;;;;;1.33;1.23;;;21.40;99.90;;;;;;5057677;28;20193;-75
2023/10/10 13:41:18;;;;;;;0.70;0.70;;;21.30;99.90;;;;;;5041449;28;20780;-75
2023/10/10 13:43:51;;;;;;;1.10;1.10;;;21.20;99.90;;;;;;5048426;28;20082;-74
2023/10/10 13:46:18;;;;;;;2.00;1.77;;;21.20;99.90;;;;;;5051848;28;20043;-74
2023/10/10 13:48:45;;;;;;;1.73;1.35;;;21.10;99.90;;;;;;5053285;28;20094;-74
2023/10/10 13:51:13;;;;;;;1.08;1.02;;;21.10;99.90;;;;;;5055379;28;20040;-74
2023/10/10 13:53:40;;;;;;;0.80;0.80;;;21.10;99.90;;;;;;5057965;28;20051;-74
2023/10/10 13:56:07;;;;;;;0.70;0.70;;;21.00;99.90;;;;;;5059202;28;20052;-74
2023/10/10 13:58:34;;;;;;;0.70;0.70;;;20.90;99.90;;;;;;5067419;28;20040;-75
2023/10/10 14:01:18;;;;;;;0.45;0.45;;;20.90;99.90;;;;;;5056458;28;20290;-74
2023/10/10 14:03:48;;;;;;;1.02;0.98;;;20.90;99.90;;;;;;5055039;28;20094;-74
2023/10/10 14:06:26;;;;;;;2.00;1.60;;;20.80;99.90;;;;;;5057977;28;20132;-74
2023/10/10 14:08:53;;;;;;;0.95;0.93;;;20.80;99.90;;;;;;5060669;28;20044;-74
2023/10/10 14:11:21;;;;;;;1.25;1.15;;;20.80;99.90;;;;;;5052866;28;20050;-74
2023/10/10 14:13:49;;;;;;;0.55;0.43;;;20.80;99.90;;;;;;5045284;28;20127;-74
2023/10/10 14:16:16;;;;;;;1.75;1.10;;;20.80;99.90;;;;;;5058864;28;20099;-74
2023/10/10 14:18:50;;;;;;;1.20;0.65;;;20.80;99.90;;;;;;5059089;28;20040;-74
2023/10/10 14:21:23;;;;;;;0.80;0.80;;;20.80;99.90;;;;;;5061211;28;20032;-74
2023/10/10 14:23:49;;;;;;;1.58;1.48;;;20.80;99.90;;;;;;5061517;28;20421;-74
2023/10/10 14:26:18;;;;;;;3.10;2.83;;;20.80;99.90;;;;;;5067540;28;20039;-74
2023/10/10 14:28:50;;;;;;;0.70;0.70;;;20.70;99.90;;;;;;5059417;28;20033;-74
2023/10/10 14:31:42;;;;;;;0.40;0.40;;;20.70;99.90;;;;;;5058051;28;20040;-74
2023/10/10 14:34:19;;;;;;;1.60;0.88;;;20.70;99.90;;;;;;5065777;28;20177;-75
2023/10/10 14:36:46;;;;;;;1.10;0.90;;;20.70;99.90;;;;;;5057257;28;20109;-75
2023/10/10 14:41:59;;;;;;;1.10;1.05;;;20.70;99.90;;;;;;5059568;28;20086;-75
2023/10/10 14:44:26;;;;;;;0.85;0.85;;;20.70;99.90;;;;;;5078458;28;20032;-75
2023/10/10 14:46:57;;;;;;;0.50;0.50;;;20.70;99.90;;;;;;5068235;28;20057;-75
2023/10/10 14:49:29;;;;;;;0.70;0.70;;;20.70;99.90;;;;;;5059144;28;20032;-74
2023/10/10 14:51:57;;;;;;;0.60;0.60;;;20.60;99.90;;;;;;5063806;28;20123;-73
2023/10/10 14:54:23;;;;;;;;;;;20.60;99.90;;;;;;5060593;28;20040;-74
2023/10/10 14:56:51;;;;;;;1.20;1.10;;;20.50;99.90;;;;;;5062939;28;20369;-74
2023/10/10 14:59:20;;;;;;;0.80;0.80;;;20.50;99.90;;;;;;5042824;28;20047;-73
2023/10/10 15:01:50;;;;;;;1.10;1.10;;;20.40;99.90;;;;;;5062817;28;20051;-74
2023/10/10 15:04:18;;;;;;;1.33;1.27;;;20.40;99.90;;;;;;5071273;28;20044;-73
2023/10/10 15:06:47;;;;;;;;;;;20.30;99.90;;;;;;5060429;28;20047;-73
2023/10/10 15:09:19;;;;;;;0.85;0.85;;;20.30;99.90;;;;;;5063457;28;19920;-73
2023/10/10 15:11:46;;;;;;;1.42;1.33;;;20.30;99.90;;;;;;5066513;28;20043;-73
2023/10/10 15:14:13;;;;;;;2.72;1.42;;;20.20;99.90;;;;;;5063690;28;20044;-76
2023/10/10 15:16:40;;;;;;;0.75;0.75;;;20.20;99.90;;;;;;5062718;28;20049;-74
2023/10/10 15:19:07;;;;;;;0.75;0.75;;;20.20;99.90;;;;;;5063621;28;20066;-73
2023/10/10 15:21:37;;;;;;;1.42;1.23;;;20.10;99.90;;;;;;5061525;28;20148;-73
2023/10/10 15:24:11;;;;;;;0.88;0.85;;;20.10;99.90;;;;;;5061215;28;20040;-73
2023/10/10 15:26:38;;;;;;;0.98;0.98;;;20.00;99.90;;;;;;5062014;28;20033;-73
2023/10/10 15:29:04;;;;;;;1.20;1.20;;;19.90;99.90;;;;;;5068004;28;20350;-73
2023/10/10 15:31:31;;;;;;;0.60;0.60;;;19.90;99.90;;;;;;5069931;28;20115;-74
2023/10/10 15:33:57;;;;;;;1.73;1.63;;;19.80;99.90;;;;;;5064363;28;20497;-73
2023/10/10 15:36:30;;;;;;;0.95;0.90;;;19.70;99.90;;;;;;5063192;28;20051;-75
2023/10/10 15:39:06;;;;;;;1.17;1.13;;;19.70;99.90;;;;;;5054185;28;20437;-75
2023/10/10 15:41:34;;;;;;;0.98;0.98;;;19.60;99.90;;;;;;5041616;28;20083;-75
2023/10/10 15:44:03;;;;;;;0.70;0.70;;;19.50;99.90;;;;;;5049284;28;20081;-75
2023/10/10 15:46:34;;;;;;;1.85;1.73;;;19.50;99.90;;;;;;5055095;28;20036;-75
2023/10/10 15:49:01;;;;;;;0.90;0.90;;;19.50;99.90;;;;;;5042751;28;20120;-75
2023/10/10 15:51:29;;;;;;;0.68;0.68;;;19.40;99.90;;;;;;5059335;28;20048;-76
2023/10/10 15:53:56;;;;;;;0.85;0.85;;;19.40;99.90;;;;;;5048956;28;20032;-75
2023/10/10 15:56:28;;;;;;;2.53;0.77;;;19.30;99.90;;;;;;5056192;28;20052;-75
2023/10/10 15:58:55;;;;;;;0.60;0.60;;;19.20;99.90;;;;;;5039735;28;20131;-75
2023/10/10 16:01:23;;;;;;;0.88;0.88;;;19.20;99.90;;;;;;5049188;28;20101;-75
2023/10/10 16:04:12;;;;;;;0.88;0.88;;;19.10;99.90;;;;;;5060235;28;20072;-74
2023/10/10 16:06:39;;;;;;;0.70;0.70;;;19.00;99.90;;;;;;5044304;28;20035;-75
2023/10/10 16:09:52;;;;;;;0.63;0.63;;;19.00;99.90;;;;;;5060882;28;20477;-75
2023/10/10 16:11:55;;;;;;;1.52;1.42;;;18.90;99.90;;;;;;5046594;28;20084;-75
2023/10/10 16:14:22;;;;;;;0.47;0.47;;;18.90;99.90;;;;;;5063086;28;20078;-74